createdAt,value
2023-03-26T00:02:09.244Z,73.32
2023-03-26T00:04:38.644Z,73.33
2023-03-26T00:07:09.929Z,73.46
2023-03-26T00:09:41.124Z,73.56
2023-03-26T00:12:10.094Z,73.63
2023-03-26T00:14:40.483Z,73.12
2023-03-26T00:17:09.470Z,73.60
2023-03-26T00:19:39.795Z,73.23
2023-03-26T00:22:10.649Z,73.37
2023-03-26T00:24:40.241Z,73.59
2023-03-26T00:27:09.132Z,73.65
2023-03-26T00:29:39.783Z,73.46
2023-03-26T00:32:09.058Z,73.41
2023-03-26T00:34:41.077Z,73.75
2023-03-26T00:37:12.088Z,73.56
2023-03-26T00:39:42.410Z,73.83
2023-03-26T00:42:14.431Z,73.92
2023-03-26T00:44:43.428Z,73.89
2023-03-26T00:47:13.039Z,73.43
2023-03-26T00:49:46.434Z,73.78
2023-03-26T00:52:18.418Z,73.57
2023-03-26T00:54:48.478Z,73.96
2023-03-26T00:57:32.778Z,73.50
2023-03-26T01:00:15.301Z,74.06
2023-03-26T01:02:47.911Z,73.68
2023-03-26T01:05:48.357Z,74.05
2023-03-26T01:08:27.131Z,74.19
2023-03-26T01:11:06.444Z,74.04
2023-03-26T01:13:38.232Z,73.72
2023-03-26T01:16:25.319Z,73.41
2023-03-26T01:18:58.247Z,73.78
2023-03-26T01:21:31.473Z,73.89
2023-03-26T01:24:02.503Z,73.72
2023-03-26T01:27:09.759Z,73.97
2023-03-26T01:29:47.630Z,74.28
2023-03-26T01:32:32.407Z,73.61
2023-03-26T01:35:20.980Z,73.66
2023-03-26T01:38:02.044Z,73.83
2023-03-26T01:40:42.197Z,73.99
2023-03-26T01:43:17.879Z,73.84
2023-03-26T01:45:49.971Z,73.99
2023-03-26T01:48:19.320Z,73.90
2023-03-26T01:50:53.163Z,73.91
2023-03-26T01:53:22.034Z,73.86
2023-03-26T01:56:03.434Z,73.84
2023-03-26T01:58:41.435Z,74.12
2023-03-26T02:01:23.870Z,73.46
2023-03-26T02:03:58.835Z,73.98
2023-03-26T02:06:33.885Z,73.85
2023-03-26T02:09:06.568Z,74.17
2023-03-26T02:11:38.570Z,74.18
2023-03-26T02:14:08.718Z,73.84
2023-03-26T02:16:38.857Z,73.77
2023-03-26T02:19:14.913Z,73.78
2023-03-26T02:21:46.468Z,73.87
2023-03-26T02:24:15.556Z,73.77
2023-03-26T02:26:45.351Z,74.14
2023-03-26T02:29:19.788Z,73.65
2023-03-26T02:31:50.021Z,73.72
2023-03-26T02:34:19.147Z,73.71
2023-03-26T02:36:52.452Z,73.76
2023-03-26T02:39:21.973Z,74.10
2023-03-26T02:41:56.879Z,73.84
2023-03-26T02:44:27.261Z,74.11
2023-03-26T02:47:16.335Z,74.32
2023-03-26T02:49:54.821Z,74.23
2023-03-26T02:52:36.879Z,73.96
2023-03-26T02:55:07.604Z,74.13
2023-03-26T02:57:39.248Z,73.88
2023-03-26T03:00:22.297Z,74.07
2023-03-26T03:03:11.143Z,74.11
2023-03-26T03:06:12.692Z,74.04
2023-03-26T03:08:47.520Z,74.07
2023-03-26T03:11:21.839Z,74.13
2023-03-26T03:13:54.101Z,74.34
2023-03-26T03:16:26.444Z,74.32
2023-03-26T03:18:57.432Z,74.35
2023-03-26T03:21:30.215Z,74.27
2023-03-26T03:23:59.918Z,74.42
2023-03-26T03:26:30.963Z,74.33
2023-03-26T03:29:05.756Z,74.53
2023-03-26T03:31:37.210Z,74.35
2023-03-26T03:34:07.601Z,74.07
2023-03-26T03:36:41.722Z,74.20
2023-03-26T03:39:20.243Z,74.26
2023-03-26T03:41:49.642Z,74.23
2023-03-26T03:44:18.863Z,74.09
2023-03-26T03:46:53.989Z,74.53
2023-03-26T03:49:23.539Z,74.08
2023-03-26T03:51:53.995Z,74.23
2023-03-26T03:54:29.938Z,74.19
2023-03-26T03:57:15.405Z,73.99
2023-03-26T04:00:01.818Z,74.08
2023-03-26T04:02:45.935Z,73.76
2023-03-26T04:05:15.567Z,73.88
2023-03-26T04:07:49.724Z,73.95
2023-03-26T04:10:43.217Z,74.15
2023-03-26T04:13:15.206Z,74.28
2023-03-26T04:16:12.056Z,74.06
2023-03-26T04:18:44.638Z,74.09
2023-03-26T04:21:17.036Z,74.26
2023-03-26T04:23:47.038Z,74.10
2023-03-26T04:26:43.455Z,74.13
2023-03-26T04:29:18.637Z,74.15
2023-03-26T04:31:50.043Z,74.21
2023-03-26T04:34:23.663Z,74.39
2023-03-26T04:37:04.631Z,74.12
2023-03-26T04:39:38.459Z,74.17
2023-03-26T04:42:34.442Z,74.22
2023-03-26T04:45:14.506Z,73.91
2023-03-26T04:47:45.898Z,74.33
2023-03-26T04:50:16.444Z,74.37
2023-03-26T04:52:47.633Z,74.07
2023-03-26T04:55:45.334Z,74.21
2023-03-26T04:58:20.961Z,74.17
2023-03-26T05:01:00.619Z,74.22
2023-03-26T05:03:48.347Z,73.91
2023-03-26T05:06:18.465Z,73.97
2023-03-26T05:08:49.312Z,73.91
2023-03-26T05:11:38.533Z,74.10
2023-03-26T05:14:08.885Z,73.89
2023-03-26T05:16:41.616Z,74.24
2023-03-26T05:19:14.086Z,74.11
2023-03-26T05:21:49.676Z,74.05
2023-03-26T05:24:19.452Z,73.97
2023-03-26T05:26:50.361Z,73.84
2023-03-26T05:29:24.442Z,74.00
2023-03-26T05:31:56.048Z,73.86
2023-03-26T05:34:26.673Z,74.04
2023-03-26T05:36:56.422Z,73.93
2023-03-26T05:39:47.671Z,73.72
2023-03-26T05:42:46.968Z,73.81
2023-03-26T05:45:39.178Z,73.67
2023-03-26T05:48:28.244Z,73.78
2023-03-26T05:50:58.326Z,73.93
2023-03-26T05:53:29.152Z,73.52
2023-03-26T05:56:20.677Z,73.55
2023-03-26T05:59:09.970Z,73.67
2023-03-26T06:01:57.949Z,73.55
2023-03-26T06:04:53.736Z,73.56
2023-03-26T06:07:33.660Z,73.53
2023-03-26T06:10:18.333Z,73.70
2023-03-26T06:12:52.304Z,73.39
2023-03-26T06:15:23.323Z,73.29
2023-03-26T06:18:03.750Z,73.26
2023-03-26T06:20:51.668Z,73.15
2023-03-26T06:23:28.855Z,73.25
2023-03-26T06:26:13.851Z,73.31
2023-03-26T06:29:04.205Z,73.34
2023-03-26T06:31:55.247Z,73.48
2023-03-26T06:34:32.895Z,73.30
2023-03-26T06:37:02.905Z,73.61
2023-03-26T06:39:32.636Z,73.40
2023-03-26T06:42:18.872Z,73.62
2023-03-26T06:45:23.927Z,73.68
2023-03-26T06:48:23.216Z,73.77
2023-03-26T06:51:11.849Z,73.84
2023-03-26T06:53:59.894Z,73.80
2023-03-26T06:57:02.936Z,73.64
2023-03-26T06:59:55.941Z,73.24
2023-03-26T07:02:44.405Z,73.16
2023-03-26T07:05:31.971Z,73.40
2023-03-26T07:08:25.113Z,72.58
2023-03-26T07:11:34.872Z,73.32
2023-03-26T07:14:27.309Z,72.79
2023-03-26T07:17:13.371Z,72.65
2023-03-26T07:19:57.717Z,72.80
2023-03-26T07:22:29.942Z,72.41
2023-03-26T07:25:27.940Z,72.24
2023-03-26T07:28:31.957Z,72.49
2023-03-26T07:31:24.722Z,72.81
2023-03-26T07:34:40.648Z,72.18
2023-03-26T07:37:47.212Z,73.21
2023-03-26T07:41:03.188Z,71.92
2023-03-26T07:44:19.120Z,72.83
2023-03-26T07:47:18.375Z,72.24
2023-03-26T07:50:15.670Z,72.33
2023-03-26T07:53:03.361Z,72.23
2023-03-26T07:55:59.953Z,72.27
2023-03-26T07:59:04.534Z,72.22
2023-03-26T08:02:05.050Z,72.19
2023-03-26T08:05:17.891Z,72.39
2023-03-26T08:08:26.650Z,72.02
2023-03-26T08:11:34.542Z,72.37
2023-03-26T08:14:27.383Z,71.93
2023-03-26T08:17:06.067Z,71.97
2023-03-26T08:19:57.438Z,71.89
2023-03-26T08:22:31.562Z,72.37
2023-03-26T08:25:05.504Z,71.82
2023-03-26T08:27:39.630Z,72.36
2023-03-26T08:30:14.290Z,71.72
2023-03-26T08:32:54.522Z,71.86
2023-03-26T08:35:26.362Z,71.68
2023-03-26T08:37:55.743Z,72.08
2023-03-26T08:40:58.067Z,71.32
2023-03-26T08:43:55.436Z,71.41
2023-03-26T08:47:11.532Z,71.93
2023-03-26T08:49:59.455Z,71.39
2023-03-26T08:52:58.801Z,71.17
2023-03-26T08:55:40.523Z,70.90
2023-03-26T08:58:36.537Z,71.28
2023-03-26T09:01:33.589Z,70.62
2023-03-26T09:04:44.089Z,70.34
2023-03-26T09:07:41.495Z,71.22
2023-03-26T09:10:40.663Z,70.72
2023-03-26T09:13:41.678Z,70.63
2023-03-26T09:16:44.357Z,70.78
2023-03-26T09:19:45.176Z,70.83
2023-03-26T09:22:45.620Z,70.72
2023-03-26T09:25:34.686Z,70.39
2023-03-26T09:28:33.875Z,70.67
2023-03-26T09:31:36.650Z,69.42
2023-03-26T09:34:28.070Z,70.57
2023-03-26T09:37:23.559Z,69.32
2023-03-26T09:40:06.856Z,70.14
2023-03-26T09:42:44.810Z,70.02
2023-03-26T09:45:43.702Z,69.06
2023-03-26T09:48:42.798Z,69.88
2023-03-26T09:51:27.714Z,70.02
2023-03-26T09:54:23.210Z,69.84
2023-03-26T09:57:03.280Z,69.60
2023-03-26T10:00:01.110Z,68.72
2023-03-26T10:02:52.689Z,69.45
2023-03-26T10:05:34.083Z,68.41
2023-03-26T10:08:30.847Z,69.02
2023-03-26T10:11:11.911Z,68.47
2023-03-26T10:13:56.513Z,68.91
2023-03-26T10:16:40.071Z,68.09
2023-03-26T10:19:52.401Z,68.24
2023-03-26T10:22:39.383Z,67.69
2023-03-26T10:25:35.971Z,67.43
2023-03-26T10:28:26.200Z,67.90
2023-03-26T10:31:06.026Z,67.36
2023-03-26T10:33:42.742Z,67.57
2023-03-26T10:36:29.151Z,66.94
2023-03-26T10:39:37.046Z,66.02
2023-03-26T10:42:22.215Z,66.21
2023-03-26T10:45:14.941Z,65.55
2023-03-26T10:48:23.584Z,65.65
2023-03-26T10:51:05.021Z,67.08
2023-03-26T10:53:42.834Z,67.27
2023-03-26T10:56:24.703Z,67.34
2023-03-26T10:59:05.883Z,68.11
2023-03-26T11:01:47.719Z,67.65
2023-03-26T11:04:32.730Z,68.26
2023-03-26T11:07:11.578Z,67.75
2023-03-26T11:09:49.079Z,68.03
2023-03-26T11:12:28.459Z,67.88
2023-03-26T11:15:13.804Z,67.85
2023-03-26T11:17:52.847Z,66.95
2023-03-26T11:20:27.713Z,67.10
2023-03-26T11:23:25.788Z,67.08
2023-03-26T11:25:59.513Z,66.67
2023-03-26T11:29:03.259Z,66.77
2023-03-26T11:31:49.112Z,66.16
2023-03-26T11:34:27.489Z,66.44
2023-03-26T11:36:58.915Z,67.41
2023-03-26T11:39:37.570Z,66.78
2023-03-26T11:42:11.669Z,66.17
2023-03-26T11:44:53.437Z,66.84
2023-03-26T11:47:31.031Z,66.10
2023-03-26T11:50:02.213Z,66.34
2023-03-26T11:52:31.472Z,66.11
2023-03-26T11:55:00.535Z,66.34
2023-03-26T11:57:35.334Z,66.21
2023-03-26T12:00:15.432Z,65.53
2023-03-26T12:02:46.681Z,65.49
2023-03-26T12:05:20.049Z,66.27
2023-03-26T12:07:54.252Z,65.44
2023-03-26T12:10:32.755Z,64.54
2023-03-26T12:13:22.903Z,64.57
2023-03-26T12:15:57.874Z,63.76
2023-03-26T12:18:28.497Z,63.92
2023-03-26T12:21:08.553Z,64.02
2023-03-26T12:23:56.506Z,64.02
2023-03-26T12:26:39.156Z,64.60
2023-03-26T12:29:12.542Z,63.38
2023-03-26T12:31:55.081Z,63.88
2023-03-26T12:34:34.245Z,64.62
2023-03-26T12:37:08.228Z,64.65
2023-03-26T12:40:07.450Z,63.89
2023-03-26T12:44:46.128Z,63.72
2023-03-26T12:45:23.717Z,63.89
2023-03-26T12:48:02.983Z,64.53
2023-03-26T12:50:51.062Z,64.06
2023-03-26T12:53:53.212Z,64.07
2023-03-26T12:56:35.623Z,63.81
2023-03-26T12:59:22.001Z,63.58
2023-03-26T13:02:15.500Z,64.51
2023-03-26T13:05:08.310Z,64.36
2023-03-26T13:07:53.407Z,63.34
2023-03-26T13:10:45.501Z,64.53
2023-03-26T13:13:45.271Z,64.77
2023-03-26T13:16:27.264Z,64.80
2023-03-26T13:19:02.312Z,64.41
2023-03-26T13:21:44.735Z,64.02
2023-03-26T13:24:25.362Z,64.16
2023-03-26T13:27:10.691Z,64.43
2023-03-26T13:29:55.797Z,64.12
2023-03-26T13:32:37.291Z,63.77
2023-03-26T13:35:23.755Z,63.46
2023-03-26T13:38:03.467Z,64.42
2023-03-26T13:40:45.435Z,63.88
2023-03-26T13:43:32.253Z,63.68
2023-03-26T13:46:13.274Z,64.50
2023-03-26T13:48:49.289Z,63.24
2023-03-26T13:51:30.872Z,63.77
2023-03-26T13:54:06.282Z,63.71
2023-03-26T13:56:43.451Z,63.86
2023-03-26T13:59:21.532Z,64.04
2023-03-26T14:01:58.234Z,64.34
2023-03-26T14:04:32.681Z,64.21
2023-03-26T14:07:10.348Z,64.75
2023-03-26T14:09:48.118Z,64.35
2023-03-26T14:12:28.973Z,64.69
2023-03-26T14:15:03.886Z,64.64
2023-03-26T14:17:40.116Z,64.65
2023-03-26T14:20:40.441Z,64.65
2023-03-26T14:23:44.719Z,64.72
2023-03-26T14:26:25.144Z,64.88
2023-03-26T14:29:33.933Z,64.15
2023-03-26T14:32:24.186Z,64.07
2023-03-26T14:35:08.858Z,63.50
2023-03-26T14:37:56.931Z,63.81
2023-03-26T14:40:58.572Z,64.59
2023-03-26T14:43:59.595Z,64.59
2023-03-26T14:46:53.740Z,63.43
2023-03-26T14:49:53.135Z,63.93
2023-03-26T14:52:31.508Z,63.62
2023-03-26T14:55:13.301Z,63.17
2023-03-26T14:58:14.075Z,63.72
2023-03-26T15:01:08.344Z,63.76
2023-03-26T15:04:25.685Z,63.34
2023-03-26T15:07:46.566Z,63.42
2023-03-26T15:11:07.613Z,63.58
2023-03-26T15:13:56.125Z,63.99
2023-03-26T15:16:59.737Z,64.06
2023-03-26T15:20:11.376Z,63.52
2023-03-26T15:23:15.335Z,63.47
2023-03-26T15:26:36.606Z,63.01
2023-03-26T15:29:41.091Z,63.79
2023-03-26T15:32:58.817Z,63.57
2023-03-26T15:35:56.976Z,63.99
2023-03-26T15:38:53.283Z,63.36
2023-03-26T15:41:33.928Z,63.85
2023-03-26T15:44:31.646Z,63.02
2023-03-26T15:47:26.680Z,63.53
2023-03-26T15:50:08.917Z,63.77
2023-03-26T15:52:53.882Z,63.20
2023-03-26T15:55:30.932Z,63.67
2023-03-26T15:58:15.122Z,64.14
2023-03-26T16:00:56.045Z,63.84
2023-03-26T16:03:40.141Z,64.08
2023-03-26T16:06:47.758Z,63.70
2023-03-26T16:09:33.810Z,64.09
2023-03-26T16:12:33.407Z,63.32
2023-03-26T16:15:23.848Z,63.21
2023-03-26T16:18:29.471Z,63.37
2023-03-26T16:21:40.741Z,63.71
2023-03-26T16:24:28.893Z,63.59
2023-03-26T16:27:22.865Z,63.75
2023-03-26T16:30:28.622Z,63.28
2023-03-26T16:33:11.719Z,64.00
2023-03-26T16:36:06.792Z,64.25
2023-03-26T16:38:52.983Z,63.60
2023-03-26T16:41:26.083Z,64.08
2023-03-26T16:44:11.535Z,64.24
2023-03-26T16:46:52.777Z,64.32
2023-03-26T16:49:35.430Z,63.68
2023-03-26T16:52:16.012Z,64.15
2023-03-26T16:54:50.173Z,64.28
2023-03-26T16:57:25.580Z,64.38
2023-03-26T17:00:24.562Z,64.41
2023-03-26T17:03:07.566Z,64.14
2023-03-26T17:05:43.903Z,64.00
2023-03-26T17:08:22.643Z,64.06
2023-03-26T17:11:19.131Z,64.07
2023-03-26T17:14:03.119Z,64.27
2023-03-26T17:16:40.775Z,64.02
2023-03-26T17:19:29.132Z,64.74
2023-03-26T17:22:06.874Z,64.55
2023-03-26T17:24:45.487Z,64.56
2023-03-26T17:27:49.542Z,64.58
2023-03-26T17:30:44.605Z,64.73
2023-03-26T17:33:27.892Z,64.36
2023-03-26T17:36:29.314Z,64.81
2023-03-26T17:39:23.180Z,64.83
2023-03-26T17:42:13.224Z,64.96
2023-03-26T17:44:46.195Z,64.89
2023-03-26T17:47:33.327Z,65.05
2023-03-26T17:50:17.965Z,65.10
2023-03-26T17:52:54.616Z,65.24
2023-03-26T17:55:30.090Z,65.10
2023-03-26T17:58:01.201Z,65.56
2023-03-26T18:00:35.808Z,65.52
2023-03-26T18:03:18.609Z,65.52
2023-03-26T18:05:48.658Z,65.56
2023-03-26T18:08:40.798Z,65.57
2023-03-26T18:11:38.536Z,65.50
2023-03-26T18:14:34.389Z,65.73
2023-03-26T18:17:06.031Z,65.89
2023-03-26T18:19:49.561Z,66.01
2023-03-26T18:22:23.489Z,66.20
2023-03-26T18:24:59.179Z,66.42
2023-03-26T18:27:38.024Z,66.50
2023-03-26T18:30:20.517Z,66.10
2023-03-26T18:32:58.824Z,66.32
2023-03-26T18:35:40.684Z,66.52
2023-03-26T18:38:18.776Z,66.26
2023-03-26T18:41:06.081Z,66.72
2023-03-26T18:43:44.083Z,66.65
2023-03-26T18:46:16.369Z,66.80
2023-03-26T18:48:47.144Z,67.13
2023-03-26T18:51:22.275Z,67.07
2023-03-26T18:53:57.744Z,66.74
2023-03-26T18:56:33.287Z,67.46
2023-03-26T18:59:05.863Z,67.21
2023-03-26T19:01:37.997Z,66.82
2023-03-26T19:04:14.663Z,66.53
2023-03-26T19:06:45.946Z,66.87
2023-03-26T19:09:30.946Z,67.24
2023-03-26T19:12:09.144Z,67.64
2023-03-26T19:14:55.598Z,67.84
2023-03-26T19:17:28.687Z,67.16
2023-03-26T19:19:58.363Z,67.51
2023-03-26T19:22:29.013Z,67.64
2023-03-26T19:25:01.425Z,68.14
2023-03-26T19:27:30.650Z,67.77
2023-03-26T19:29:59.892Z,67.79
2023-03-26T19:32:34.004Z,67.84
2023-03-26T19:35:04.220Z,67.60
2023-03-26T19:37:49.349Z,68.41
2023-03-26T19:40:24.668Z,67.77
2023-03-26T19:42:54.594Z,68.25
2023-03-26T19:45:26.656Z,67.88
2023-03-26T19:48:11.769Z,67.84
2023-03-26T19:50:54.656Z,68.24
2023-03-26T19:53:32.034Z,67.89
2023-03-26T19:56:12.884Z,68.64
2023-03-26T19:58:44.023Z,67.86
2023-03-26T20:01:17.773Z,67.98
2023-03-26T20:03:51.403Z,68.60
2023-03-26T20:06:37.855Z,68.25
2023-03-26T20:09:15.740Z,68.53
2023-03-26T20:11:46.474Z,68.44
2023-03-26T20:14:21.751Z,68.07
2023-03-26T20:16:51.827Z,68.98
2023-03-26T20:19:23.333Z,68.32
2023-03-26T20:21:54.084Z,69.27
2023-03-26T20:24:28.702Z,68.91
2023-03-26T20:26:58.979Z,69.34
2023-03-26T20:29:28.952Z,68.98
2023-03-26T20:31:58.940Z,68.93
2023-03-26T20:34:31.522Z,69.28
2023-03-26T20:37:02.182Z,69.42
2023-03-26T20:39:31.829Z,69.17
2023-03-26T20:42:02.468Z,69.70
2023-03-26T20:44:32.313Z,69.26
2023-03-26T20:47:04.369Z,69.25
2023-03-26T20:49:33.360Z,69.36
2023-03-26T20:52:03.040Z,69.63
2023-03-26T20:54:32.687Z,69.99
2023-03-26T20:57:02.811Z,69.61
2023-03-26T20:59:34.112Z,69.15
2023-03-26T21:02:04.348Z,69.22
2023-03-26T21:04:34.472Z,69.61
2023-03-26T21:07:17.490Z,70.30
2023-03-26T21:09:49.595Z,70.39
2023-03-26T21:12:27.741Z,70.11
2023-03-26T21:14:59.609Z,70.28
2023-03-26T21:17:32.192Z,70.33
2023-03-26T21:20:11.533Z,70.13
2023-03-26T21:22:49.646Z,70.86
2023-03-26T21:25:27.808Z,70.58
2023-03-26T21:28:39.415Z,70.55
2023-03-26T21:31:14.477Z,70.17
2023-03-26T21:33:44.638Z,70.01
2023-03-26T21:36:16.559Z,69.86
2023-03-26T21:38:47.227Z,70.70
2023-03-26T21:41:26.947Z,70.23
2023-03-26T21:43:59.934Z,70.02
2023-03-26T21:46:40.847Z,70.03
2023-03-26T21:49:10.855Z,70.60
2023-03-26T21:51:41.125Z,70.36
2023-03-26T21:54:24.661Z,70.53
2023-03-26T21:57:05.365Z,70.77
2023-03-26T21:59:39.895Z,70.21
2023-03-26T22:02:18.158Z,69.91
2023-03-26T22:04:51.833Z,70.32
2023-03-26T22:07:27.322Z,70.16
2023-03-26T22:09:59.855Z,70.46
2023-03-26T22:12:29.071Z,70.56
2023-03-26T22:15:00.925Z,71.11
2023-03-26T22:17:30.184Z,70.86
2023-03-26T22:20:00.712Z,70.84
2023-03-26T22:22:29.999Z,70.31
2023-03-26T22:24:59.252Z,71.05
2023-03-26T22:27:29.468Z,70.79
2023-03-26T22:30:01.367Z,71.04
2023-03-26T22:32:32.889Z,71.51
2023-03-26T22:35:03.692Z,70.46
2023-03-26T22:37:34.011Z,70.56
2023-03-26T22:40:07.756Z,70.60
2023-03-26T22:42:36.809Z,71.69
2023-03-26T22:45:08.683Z,71.74
2023-03-26T22:47:38.517Z,70.65
2023-03-26T22:50:09.697Z,71.20
2023-03-26T22:52:40.184Z,71.26
2023-03-26T22:55:11.222Z,71.38
2023-03-26T22:57:40.781Z,70.69
2023-03-26T23:00:17.103Z,71.49
2023-03-26T23:09:08.513Z,70.92
2023-03-26T23:11:37.394Z,71.50
2023-03-26T23:14:06.543Z,71.55
2023-03-26T23:16:38.345Z,71.91
2023-03-26T23:19:08.509Z,71.30
2023-03-26T23:21:37.465Z,70.90
2023-03-26T23:24:08.662Z,71.67
2023-03-26T23:26:49.514Z,71.48
2023-03-26T23:29:20.098Z,71.15
2023-03-26T23:31:48.978Z,72.02
2023-03-26T23:34:18.212Z,71.89
2023-03-26T23:36:47.106Z,72.27
2023-03-26T23:39:16.476Z,72.21
2023-03-26T23:41:45.626Z,71.43
2023-03-26T23:44:16.597Z,72.53
2023-03-26T23:46:45.501Z,72.25
2023-03-26T23:49:15.401Z,71.48
2023-03-26T23:51:44.361Z,71.65
2023-03-26T23:54:14.784Z,72.63
2023-03-26T23:56:43.660Z,72.07
2023-03-26T23:59:13.626Z,72.52
